createdAt,value
2019-02-24T00:01:21.076Z,4.63
2019-02-24T00:03:51.659Z,6.43
2019-02-24T00:06:21.777Z,7.23
2019-02-24T00:08:52.462Z,5.17
2019-02-24T00:11:23.093Z,5.13
2019-02-24T00:13:53.741Z,4.77
2019-02-24T00:16:24.384Z,18.07
2019-02-24T00:18:54.534Z,10.30
2019-02-24T00:21:24.796Z,6.13
2019-02-24T00:23:55.322Z,5.63
2019-02-24T00:26:26.129Z,7.00
2019-02-24T00:28:56.718Z,4.80
2019-02-24T00:31:27.301Z,5.03
2019-02-24T00:33:59.125Z,5.30
2019-02-24T00:36:29.698Z,6.40
2019-02-24T00:39:00.373Z,4.73
2019-02-24T00:41:31.050Z,5.03
2019-02-24T00:44:01.476Z,6.00
2019-02-24T00:46:31.790Z,5.13
2019-02-24T00:49:02.168Z,5.97
2019-02-24T00:51:32.912Z,5.13
2019-02-24T00:54:03.566Z,5.33
2019-02-24T00:56:34.140Z,6.13
2019-02-24T00:59:04.830Z,6.77
2019-02-24T01:01:34.806Z,6.53
2019-02-24T01:04:04.569Z,5.63
2019-02-24T01:06:35.098Z,5.03
2019-02-24T01:09:05.532Z,5.00
2019-02-24T01:11:35.448Z,5.13
2019-02-24T01:14:05.616Z,5.30
2019-02-24T01:16:36.068Z,5.03
2019-02-24T01:19:06.338Z,6.80
2019-02-24T01:21:36.802Z,4.73
2019-02-24T01:24:07.341Z,7.07
2019-02-24T01:26:37.927Z,5.43
2019-02-24T01:29:08.484Z,5.33
2019-02-24T01:31:38.950Z,4.97
2019-02-24T01:34:09.330Z,5.37
2019-02-24T01:36:39.798Z,5.00
2019-02-24T01:39:09.917Z,5.00
2019-02-24T01:41:39.522Z,5.83
2019-02-24T01:44:09.808Z,5.87
2019-02-24T01:46:40.369Z,5.83
2019-02-24T01:49:10.975Z,3.93
2019-02-24T01:51:41.553Z,5.27
2019-02-24T01:54:12.079Z,6.33
2019-02-24T01:56:42.360Z,4.30
2019-02-24T01:59:12.973Z,5.40
2019-02-24T02:01:43.178Z,7.00
2019-02-24T02:04:13.698Z,4.67
2019-02-24T02:06:43.629Z,3.97
2019-02-24T02:09:14.210Z,4.77
2019-02-24T02:11:44.016Z,5.47
2019-02-24T02:14:14.666Z,3.77
2019-02-24T02:16:44.834Z,7.77
2019-02-24T02:19:15.346Z,5.83
2019-02-24T02:21:46.075Z,4.10
2019-02-24T02:24:16.635Z,4.73
2019-02-24T02:26:46.917Z,5.17
2019-02-24T02:29:17.149Z,6.43
2019-02-24T02:31:47.619Z,6.27
2019-02-24T02:34:17.820Z,5.90
2019-02-24T02:36:48.428Z,7.17
2019-02-24T02:39:18.661Z,8.07
2019-02-24T02:41:48.534Z,13.00
2019-02-24T02:44:18.785Z,11.00
2019-02-24T02:46:49.540Z,9.37
2019-02-24T02:49:19.440Z,7.67
2019-02-24T02:51:49.976Z,10.30
2019-02-24T02:54:20.516Z,7.20
2019-02-24T02:56:50.763Z,6.57
2019-02-24T02:59:21.216Z,6.00
2019-02-24T03:01:51.397Z,6.17
2019-02-24T03:04:40.734Z,7.50
2019-02-24T03:07:29.910Z,7.17
2019-02-24T03:10:02.705Z,6.90
2019-02-24T03:12:32.306Z,5.77
2019-02-24T03:15:21.601Z,7.97
2019-02-24T03:17:51.899Z,8.00
2019-02-24T03:20:22.459Z,5.77
2019-02-24T03:22:53.132Z,6.23
2019-02-24T03:25:23.385Z,5.63
2019-02-24T03:27:53.620Z,8.70
2019-02-24T03:30:23.790Z,4.80
2019-02-24T03:32:54.149Z,9.50
2019-02-24T03:35:24.429Z,10.90
2019-02-24T03:37:54.724Z,8.23
2019-02-24T03:40:25.271Z,10.03
2019-02-24T03:42:55.813Z,10.43
2019-02-24T03:45:26.481Z,7.07
2019-02-24T03:47:56.757Z,7.43
2019-02-24T03:50:27.316Z,9.30
2019-02-24T03:52:57.856Z,10.07
2019-02-24T03:55:28.432Z,7.07
2019-02-24T03:57:59.103Z,7.50
2019-02-24T04:00:29.503Z,10.07
2019-02-24T04:02:59.670Z,6.90
2019-02-24T04:05:30.366Z,7.47
2019-02-24T04:08:00.599Z,5.70
2019-02-24T04:10:31.168Z,7.40
2019-02-24T04:13:01.853Z,9.73
2019-02-24T04:15:32.320Z,7.33
2019-02-24T04:18:02.570Z,8.07
2019-02-24T04:20:33.298Z,6.77
2019-02-24T04:23:05.896Z,6.50
2019-02-24T04:25:36.129Z,6.70
2019-02-24T04:28:06.642Z,5.13
2019-02-24T04:30:37.142Z,6.77
2019-02-24T04:33:07.632Z,6.50
2019-02-24T04:35:38.114Z,9.17
2019-02-24T04:38:08.384Z,7.10
2019-02-24T04:40:38.572Z,6.93
2019-02-24T04:43:09.179Z,7.53
2019-02-24T04:45:39.786Z,7.90
2019-02-24T04:48:10.047Z,8.90
2019-02-24T04:50:40.332Z,7.13
2019-02-24T04:53:10.862Z,6.13
2019-02-24T04:55:41.018Z,6.77
2019-02-24T04:58:11.238Z,7.50
2019-02-24T05:00:41.183Z,7.53
2019-02-24T05:03:11.696Z,5.43
2019-02-24T05:05:42.090Z,5.80
2019-02-24T05:08:11.566Z,6.83
2019-02-24T05:10:42.180Z,5.47
2019-02-24T05:13:12.366Z,8.47
2019-02-24T05:15:42.588Z,6.50
2019-02-24T05:18:13.239Z,6.40
2019-02-24T05:20:43.846Z,6.03
2019-02-24T05:23:14.021Z,6.47
2019-02-24T05:25:44.560Z,7.50
2019-02-24T05:28:15.258Z,5.50
2019-02-24T05:30:45.810Z,6.27
2019-02-24T05:33:16.317Z,9.57
2019-02-24T05:35:46.215Z,7.33
2019-02-24T05:38:16.695Z,7.20
2019-02-24T05:40:46.933Z,9.73
2019-02-24T05:43:17.298Z,8.07
2019-02-24T05:45:47.585Z,6.70
2019-02-24T05:48:17.848Z,7.10
2019-02-24T05:50:48.485Z,5.90
2019-02-24T05:53:19.077Z,7.90
2019-02-24T05:55:49.700Z,5.27
2019-02-24T05:58:19.971Z,6.33
2019-02-24T06:00:50.566Z,5.30
2019-02-24T06:03:20.934Z,7.47
2019-02-24T06:05:51.104Z,7.07
2019-02-24T06:08:21.384Z,6.27
2019-02-24T06:10:51.610Z,7.10
2019-02-24T06:13:22.072Z,8.13
2019-02-24T06:15:52.276Z,6.07
2019-02-24T06:18:22.914Z,6.13
2019-02-24T06:20:53.169Z,5.37
2019-02-24T06:23:23.446Z,5.97
2019-02-24T06:25:53.950Z,7.80
2019-02-24T06:28:24.312Z,7.73
2019-02-24T06:30:54.506Z,7.47
2019-02-24T06:33:25.026Z,5.23
2019-02-24T06:35:55.401Z,4.90
2019-02-24T06:38:25.879Z,6.87
2019-02-24T06:40:56.460Z,5.83
2019-02-24T06:43:26.942Z,7.10
2019-02-24T06:45:57.539Z,6.03
2019-02-24T06:48:27.537Z,6.27
2019-02-24T06:51:01.111Z,8.07
2019-02-24T06:53:31.322Z,7.10
2019-02-24T06:56:01.956Z,7.20
2019-02-24T06:58:32.255Z,14.63
2019-02-24T07:01:02.150Z,12.00
2019-02-24T07:03:32.645Z,25.00
2019-02-24T07:06:21.742Z,20.13
2019-02-24T07:08:52.234Z,19.10
2019-02-24T07:11:22.480Z,30.83
2019-02-24T07:13:54.620Z,15.57
2019-02-24T07:16:25.216Z,11.00
2019-02-24T07:18:55.501Z,9.80
2019-02-24T07:21:25.694Z,8.30
2019-02-24T07:23:56.296Z,8.07
2019-02-24T07:26:26.750Z,9.83
2019-02-24T07:28:57.285Z,7.80
2019-02-24T07:31:27.494Z,7.97
2019-02-24T07:33:57.930Z,6.30
2019-02-24T07:36:28.548Z,7.47
2019-02-24T07:38:59.067Z,7.87
2019-02-24T07:41:28.968Z,9.80
2019-02-24T07:43:59.602Z,5.63
2019-02-24T07:46:30.194Z,5.80
2019-02-24T07:49:00.631Z,6.37
2019-02-24T07:51:31.294Z,5.63
2019-02-24T07:54:01.485Z,7.30
2019-02-24T07:56:32.178Z,7.20
2019-02-24T07:59:02.416Z,8.33
2019-02-24T08:01:32.704Z,10.13
2019-02-24T08:04:03.365Z,7.03
2019-02-24T08:06:33.660Z,5.37
2019-02-24T08:09:05.008Z,6.67
2019-02-24T08:11:35.681Z,6.17
2019-02-24T08:14:05.564Z,11.33
2019-02-24T08:16:35.108Z,5.73
2019-02-24T08:19:05.516Z,5.70
2019-02-24T08:21:35.756Z,8.67
2019-02-24T08:24:06.328Z,15.17
2019-02-24T08:26:36.588Z,8.67
2019-02-24T08:29:07.238Z,8.73
2019-02-24T08:31:37.876Z,11.97
2019-02-24T08:34:08.462Z,6.17
2019-02-24T08:36:38.832Z,5.20
2019-02-24T08:39:09.164Z,8.13
2019-02-24T08:41:39.750Z,9.23
2019-02-24T08:44:10.394Z,6.27
2019-02-24T08:46:40.372Z,4.87
2019-02-24T08:49:11.037Z,10.67
2019-02-24T08:51:41.656Z,7.13
2019-02-24T08:54:12.350Z,6.67
2019-02-24T08:56:42.982Z,7.90
2019-02-24T08:59:13.518Z,7.67
2019-02-24T09:01:43.808Z,10.93
2019-02-24T09:04:14.084Z,5.97
2019-02-24T09:06:43.870Z,4.27
2019-02-24T09:09:14.060Z,6.20
2019-02-24T09:11:44.328Z,5.80
2019-02-24T09:14:14.535Z,8.23
2019-02-24T09:16:45.086Z,7.80
2019-02-24T09:19:15.842Z,7.00
2019-02-24T09:21:46.512Z,6.13
2019-02-24T09:24:17.039Z,6.00
2019-02-24T09:26:47.594Z,7.10
2019-02-24T09:29:17.516Z,5.57
2019-02-24T09:31:47.939Z,4.07
2019-02-24T09:34:18.621Z,5.73
2019-02-24T09:36:49.294Z,8.73
2019-02-24T09:39:19.814Z,8.20
2019-02-24T09:41:50.290Z,5.83
2019-02-24T09:44:20.798Z,7.90
2019-02-24T09:46:51.350Z,9.83
2019-02-24T09:49:21.293Z,8.17
2019-02-24T09:51:52.438Z,6.13
2019-02-24T09:54:22.758Z,5.67
2019-02-24T09:56:52.988Z,5.20
2019-02-24T09:59:23.302Z,5.33
2019-02-24T10:01:53.941Z,7.27
2019-02-24T10:04:24.540Z,10.73
2019-02-24T10:06:54.397Z,6.47
2019-02-24T10:09:25.015Z,5.43
2019-02-24T10:11:55.358Z,7.77
2019-02-24T10:14:25.238Z,6.63
2019-02-24T10:16:55.816Z,5.03
2019-02-24T10:19:26.284Z,5.80
2019-02-24T10:21:56.860Z,4.50
2019-02-24T10:24:27.362Z,3.80
2019-02-24T10:26:57.925Z,3.97
2019-02-24T10:29:28.256Z,4.73
2019-02-24T10:31:58.808Z,3.17
2019-02-24T10:34:29.311Z,4.43
2019-02-24T10:36:59.447Z,3.97
2019-02-24T10:39:29.966Z,5.10
2019-02-24T10:42:00.257Z,3.77
2019-02-24T10:44:30.503Z,3.93
2019-02-24T10:47:02.255Z,4.77
2019-02-24T10:49:32.813Z,4.10
2019-02-24T10:52:03.516Z,4.80
2019-02-24T10:54:33.864Z,5.37
2019-02-24T10:57:04.514Z,5.33
2019-02-24T10:59:34.547Z,3.93
2019-02-24T11:02:04.754Z,5.27
2019-02-24T11:04:35.190Z,6.67
2019-02-24T11:07:05.814Z,4.97
2019-02-24T11:09:36.052Z,5.57
2019-02-24T11:12:08.771Z,5.13
2019-02-24T11:14:38.991Z,3.77
2019-02-24T11:17:09.501Z,3.57
2019-02-24T11:19:39.710Z,4.80
2019-02-24T11:22:09.678Z,3.90
2019-02-24T11:24:39.554Z,3.97
2019-02-24T11:27:09.454Z,4.87
2019-02-24T11:29:39.934Z,3.23
2019-02-24T11:32:09.812Z,4.23
2019-02-24T11:34:40.374Z,5.17
2019-02-24T11:37:29.702Z,5.63
2019-02-24T11:40:00.310Z,5.30
2019-02-24T11:42:30.935Z,4.47
2019-02-24T11:45:00.870Z,5.27
2019-02-24T11:47:31.223Z,3.60
2019-02-24T11:50:01.052Z,4.43
2019-02-24T11:52:31.564Z,3.80
2019-02-24T11:55:01.462Z,5.27
2019-02-24T11:57:31.745Z,5.73
2019-02-24T12:00:01.928Z,4.50
2019-02-24T12:02:34.570Z,4.97
2019-02-24T12:05:04.395Z,4.10
2019-02-24T12:07:34.997Z,3.43
2019-02-24T12:10:05.260Z,3.97
2019-02-24T12:12:35.800Z,3.90
2019-02-24T12:15:06.392Z,3.70
2019-02-24T12:17:36.571Z,4.90
2019-02-24T12:20:08.308Z,4.10
2019-02-24T12:22:38.839Z,5.27
2019-02-24T12:25:09.506Z,4.70
2019-02-24T12:27:40.053Z,3.10
2019-02-24T12:30:11.163Z,3.70
2019-02-24T12:32:41.867Z,5.87
2019-02-24T12:35:12.378Z,4.40
2019-02-24T12:37:43.065Z,3.03
2019-02-24T12:40:13.260Z,3.73
2019-02-24T12:42:43.239Z,5.87
2019-02-24T12:45:13.659Z,7.20
2019-02-24T12:47:44.160Z,3.07
2019-02-24T12:50:14.719Z,5.77
2019-02-24T12:52:46.019Z,5.10
2019-02-24T12:55:16.599Z,6.07
2019-02-24T12:57:46.540Z,3.93
2019-02-24T13:00:18.099Z,4.40
2019-02-24T13:02:48.606Z,3.93
2019-02-24T13:05:18.758Z,3.63
2019-02-24T13:07:49.280Z,4.87
2019-02-24T13:10:19.783Z,2.53
2019-02-24T13:12:50.331Z,2.47
2019-02-24T13:15:20.917Z,4.63
2019-02-24T13:17:51.202Z,2.20
2019-02-24T13:20:21.228Z,3.37
2019-02-24T13:22:51.822Z,2.97
2019-02-24T13:25:22.427Z,2.97
2019-02-24T13:27:52.296Z,5.13
2019-02-24T13:30:22.814Z,2.93
2019-02-24T13:32:53.492Z,3.30
2019-02-24T13:35:23.806Z,3.20
2019-02-24T13:37:54.257Z,2.60
2019-02-24T13:40:24.535Z,4.17
2019-02-24T13:42:54.875Z,3.70
2019-02-24T13:45:26.902Z,4.73
2019-02-24T13:47:57.380Z,5.63
2019-02-24T13:50:27.600Z,2.90
2019-02-24T13:52:57.846Z,3.40
2019-02-24T13:55:28.482Z,11.33
2019-02-24T13:57:58.711Z,12.47
2019-02-24T14:00:29.272Z,6.60
2019-02-24T14:03:00.005Z,8.73
2019-02-24T14:05:30.037Z,7.40
2019-02-24T14:07:59.889Z,6.10
2019-02-24T14:10:30.407Z,5.43
2019-02-24T14:13:01.046Z,3.60
2019-02-24T14:15:31.535Z,2.47
2019-02-24T14:18:01.779Z,3.97
2019-02-24T14:20:32.034Z,3.40
2019-02-24T14:23:02.620Z,2.90
2019-02-24T14:25:32.782Z,2.83
2019-02-24T14:28:03.371Z,2.47
2019-02-24T14:30:34.047Z,2.47
2019-02-24T14:33:04.660Z,3.30
2019-02-24T14:35:35.257Z,2.57
2019-02-24T14:38:05.784Z,3.23
2019-02-24T14:40:35.984Z,2.73
2019-02-24T14:43:06.258Z,2.43
2019-02-24T14:45:36.808Z,4.23
2019-02-24T14:48:07.487Z,4.97
2019-02-24T14:50:37.400Z,4.13
2019-02-24T14:53:07.211Z,3.77
2019-02-24T14:55:39.457Z,3.60
2019-02-24T14:58:09.506Z,4.13
2019-02-24T15:00:40.099Z,3.70
2019-02-24T15:03:10.642Z,3.17
2019-02-24T15:05:42.490Z,2.77
2019-02-24T15:08:12.709Z,3.93
2019-02-24T15:10:43.266Z,2.97
2019-02-24T15:13:13.870Z,6.63
2019-02-24T15:15:43.744Z,4.87
2019-02-24T15:18:13.557Z,3.73
2019-02-24T15:20:44.087Z,3.83
2019-02-24T15:23:14.670Z,3.40
2019-02-24T15:25:45.246Z,4.63
2019-02-24T15:28:15.791Z,4.37
2019-02-24T15:30:46.442Z,6.20
2019-02-24T15:33:35.692Z,4.40
2019-02-24T15:36:06.039Z,4.77
2019-02-24T15:38:36.580Z,3.40
2019-02-24T15:41:07.119Z,4.17
2019-02-24T15:43:37.388Z,4.43
2019-02-24T15:46:07.617Z,4.67
2019-02-24T15:48:38.271Z,3.40
2019-02-24T15:51:08.521Z,5.63
2019-02-24T15:53:39.082Z,4.03
2019-02-24T15:56:09.350Z,4.63
2019-02-24T15:58:39.939Z,4.00
2019-02-24T16:01:10.615Z,5.27
2019-02-24T16:03:40.917Z,5.20
2019-02-24T16:06:11.655Z,3.90
2019-02-24T16:08:42.195Z,5.30
2019-02-24T16:11:12.434Z,4.87
2019-02-24T16:13:42.658Z,6.03
2019-02-24T16:16:12.890Z,6.73
2019-02-24T16:18:43.402Z,5.50
2019-02-24T16:21:14.007Z,4.43
2019-02-24T16:23:44.394Z,4.90
2019-02-24T16:26:14.949Z,5.27
2019-02-24T16:28:46.465Z,6.93
2019-02-24T16:31:16.912Z,6.00
2019-02-24T16:33:47.209Z,8.00
2019-02-24T16:36:17.717Z,6.07
2019-02-24T16:38:48.498Z,5.73
2019-02-24T16:41:18.741Z,7.80
2019-02-24T16:43:49.277Z,5.10
2019-02-24T16:46:19.718Z,5.97
2019-02-24T16:48:49.864Z,5.23
2019-02-24T16:51:20.488Z,4.20
2019-02-24T16:53:51.059Z,9.27
2019-02-24T16:56:21.714Z,30.43
2019-02-24T16:58:52.311Z,21.83
2019-02-24T17:01:22.936Z,19.03
2019-02-24T17:03:53.520Z,17.30
2019-02-24T17:06:24.095Z,10.70
2019-02-24T17:09:00.583Z,8.70
2019-02-24T17:11:26.854Z,8.93
2019-02-24T17:13:57.579Z,14.20
2019-02-24T17:16:27.820Z,36.07
2019-02-24T17:18:58.459Z,18.60
2019-02-24T17:21:28.709Z,16.70
2019-02-24T17:23:59.255Z,12.93
2019-02-24T17:26:29.770Z,10.20
2019-02-24T17:29:00.375Z,8.37
2019-02-24T17:31:31.006Z,11.13
2019-02-24T17:34:01.539Z,16.33
2019-02-24T17:36:31.789Z,24.93
2019-02-24T17:39:02.401Z,45.30
2019-02-24T17:41:33.021Z,44.17
2019-02-24T17:44:03.561Z,35.37
2019-02-24T17:46:34.152Z,21.13
2019-02-24T17:49:04.305Z,16.27
2019-02-24T17:51:34.888Z,11.30
2019-02-24T17:54:05.179Z,9.33
2019-02-24T17:56:35.587Z,9.33
2019-02-24T17:59:05.930Z,8.07
2019-02-24T18:01:36.463Z,7.17
2019-02-24T18:04:06.789Z,7.47
2019-02-24T18:06:37.378Z,14.97
2019-02-24T18:09:08.572Z,11.13
2019-02-24T18:11:38.468Z,13.27
2019-02-24T18:14:09.011Z,11.67
2019-02-24T18:16:39.252Z,19.27
2019-02-24T18:19:09.522Z,22.00
2019-02-24T18:21:39.792Z,30.50
2019-02-24T18:24:10.017Z,21.97
2019-02-24T18:26:40.504Z,16.33
2019-02-24T18:29:11.117Z,12.97
2019-02-24T18:31:41.307Z,14.00
2019-02-24T18:34:11.632Z,9.17
2019-02-24T18:36:42.234Z,10.13
2019-02-24T18:39:12.624Z,12.17
2019-02-24T18:41:42.817Z,8.97
2019-02-24T18:44:13.459Z,11.40
2019-02-24T18:46:44.105Z,26.37
2019-02-24T18:49:14.335Z,23.73
2019-02-24T18:51:44.620Z,19.43
2019-02-24T18:54:14.347Z,14.37
2019-02-24T18:56:44.969Z,9.67
2019-02-24T18:59:15.453Z,8.73
2019-02-24T19:01:45.577Z,7.33
2019-02-24T19:04:16.185Z,7.17
2019-02-24T19:06:46.333Z,5.97
2019-02-24T19:09:16.211Z,5.87
2019-02-24T19:11:46.759Z,5.27
2019-02-24T19:14:16.641Z,5.23
2019-02-24T19:16:49.108Z,5.40
2019-02-24T19:19:25.563Z,4.87
2019-02-24T19:21:51.831Z,6.23
2019-02-24T19:24:22.477Z,6.13
2019-02-24T19:26:52.667Z,6.10
2019-02-24T19:29:23.270Z,6.73
2019-02-24T19:31:53.484Z,6.93
2019-02-24T19:34:23.747Z,6.60
2019-02-24T19:36:54.410Z,5.80
2019-02-24T19:39:24.572Z,5.57
2019-02-24T19:41:55.245Z,5.80
2019-02-24T19:44:25.477Z,5.00
2019-02-24T19:46:56.226Z,10.10
2019-02-24T19:49:26.414Z,6.17
2019-02-24T19:51:56.871Z,5.03
2019-02-24T19:54:27.127Z,5.90
2019-02-24T19:56:57.412Z,6.43
2019-02-24T19:59:27.969Z,6.47
2019-02-24T20:01:58.601Z,9.07
2019-02-24T20:04:29.184Z,13.17
2019-02-24T20:06:59.665Z,17.93
2019-02-24T20:09:30.168Z,20.40
2019-02-24T20:12:00.821Z,28.77
2019-02-24T20:14:31.434Z,47.63
2019-02-24T20:17:01.703Z,52.37
2019-02-24T20:19:32.301Z,56.97
2019-02-24T20:22:02.254Z,38.70
2019-02-24T20:24:33.217Z,33.90
2019-02-24T20:27:03.949Z,39.07
2019-02-24T20:29:34.553Z,33.63
2019-02-24T20:32:04.749Z,29.53
2019-02-24T20:34:35.098Z,27.07
2019-02-24T20:37:05.455Z,19.53
2019-02-24T20:39:54.300Z,20.83
2019-02-24T20:42:24.907Z,18.53
2019-02-24T20:44:54.768Z,18.17
2019-02-24T20:47:25.404Z,15.23
2019-02-24T20:49:55.871Z,13.97
2019-02-24T20:52:26.423Z,17.20
2019-02-24T20:54:56.938Z,9.30
2019-02-24T20:57:27.307Z,14.77
2019-02-24T20:59:57.859Z,12.53
2019-02-24T21:02:28.327Z,17.20
2019-02-24T21:04:58.869Z,12.83
2019-02-24T21:07:29.223Z,15.93
2019-02-24T21:09:59.729Z,12.43
2019-02-24T21:12:29.938Z,10.90
2019-02-24T21:15:00.502Z,15.00
2019-02-24T21:17:30.983Z,16.00
2019-02-24T21:20:01.438Z,9.43
2019-02-24T21:22:32.003Z,9.00
2019-02-24T21:25:02.539Z,9.33
2019-02-24T21:27:33.029Z,9.70
2019-02-24T21:30:02.893Z,10.93
2019-02-24T21:32:33.099Z,8.87
2019-02-24T21:35:03.339Z,11.17
2019-02-24T21:37:32.856Z,6.67
2019-02-24T21:40:02.774Z,7.73
2019-02-24T21:42:32.989Z,7.63
2019-02-24T21:45:03.613Z,6.37
2019-02-24T21:47:33.819Z,7.23
2019-02-24T21:50:04.319Z,8.33
2019-02-24T21:52:34.695Z,5.23
2019-02-24T21:55:05.470Z,11.17
2019-02-24T21:57:36.044Z,13.77
2019-02-24T22:00:08.845Z,16.90
2019-02-24T22:02:39.084Z,12.13
2019-02-24T22:05:10.130Z,15.27
2019-02-24T22:07:40.067Z,16.60
2019-02-24T22:10:11.219Z,17.50
2019-02-24T22:12:41.779Z,16.23
2019-02-24T22:15:14.528Z,18.73
2019-02-24T22:17:44.702Z,13.33
2019-02-24T22:20:16.576Z,11.93
2019-02-24T22:22:47.067Z,9.60
2019-02-24T22:25:17.136Z,10.03
2019-02-24T22:27:47.653Z,9.10
2019-02-24T22:30:18.561Z,9.07
2019-02-24T22:32:49.136Z,7.53
2019-02-24T22:35:19.191Z,7.63
2019-02-24T22:37:49.870Z,8.90
2019-02-24T22:40:20.512Z,10.03
2019-02-24T22:42:51.164Z,16.30
2019-02-24T22:45:20.697Z,11.87
2019-02-24T22:47:50.952Z,22.77
2019-02-24T22:50:21.127Z,12.30
2019-02-24T22:52:51.291Z,9.93
2019-02-24T22:55:40.194Z,8.50
2019-02-24T22:58:10.426Z,11.67
2019-02-24T23:01:09.927Z,10.40
2019-02-24T23:03:41.546Z,8.70
2019-02-24T23:06:12.366Z,6.17
2019-02-24T23:08:42.236Z,9.63
2019-02-24T23:11:12.413Z,10.83
2019-02-24T23:13:42.655Z,13.07
2019-02-24T23:16:12.608Z,9.43
2019-02-24T23:18:43.048Z,8.77
2019-02-24T23:21:13.531Z,6.57
2019-02-24T23:23:44.042Z,6.83
2019-02-24T23:26:14.595Z,9.67
2019-02-24T23:28:45.094Z,7.27
2019-02-24T23:31:15.557Z,10.73
2019-02-24T23:33:46.068Z,6.80
2019-02-24T23:36:16.715Z,9.47
2019-02-24T23:38:48.166Z,8.20
2019-02-24T23:41:18.367Z,7.87
2019-02-24T23:43:48.519Z,7.90
2019-02-24T23:46:19.114Z,7.80
2019-02-24T23:48:49.594Z,8.60
2019-02-24T23:51:20.138Z,9.33
2019-02-24T23:53:50.758Z,8.67
2019-02-24T23:56:21.362Z,10.50
2019-02-24T23:58:52.081Z,7.70
